Time;durP1;ratioP1;P1;durP2;ratioP2;P2;SDS_P1;SDS_P2;PMS_P1;PMS_P2;Temp;Humidity;BMP_temperature;BMP_pressure;BME280_temperature;BME280_humidity;BME280_pressure;Samples;Min_cycle;Max_cycle;Signal;HPM_P1;HPM_P2
2021/12/01 00:01:29;;;;;;;11.02;6.50;;;9.90;94.00;;;;;;6212587;23;20451;-78
2021/12/01 00:03:55;;;;;;;7.38;5.32;;;10.00;94.00;;;;;;6213913;23;20092;-78
2021/12/01 00:06:20;;;;;;;7.60;4.88;;;10.00;94.00;;;;;;6214540;23;20078;-78
2021/12/01 00:08:46;;;;;;;8.25;5.43;;;10.00;94.00;;;;;;6212252;23;20007;-77
2021/12/01 00:11:12;;;;;;;7.15;4.93;;;10.00;94.00;;;;;;6212253;23;20012;-78
2021/12/01 00:13:38;;;;;;;6.78;4.22;;;10.00;94.00;;;;;;6212319;23;20005;-78
2021/12/01 00:16:04;;;;;;;8.35;4.55;;;10.00;94.00;;;;;;6213088;23;20059;-77
2021/12/01 00:18:30;;;;;;;7.55;4.43;;;10.00;94.10;;;;;;6212273;23;19993;-76
2021/12/01 00:20:57;;;;;;;6.72;4.90;;;10.00;94.10;;;;;;6212925;23;20062;-76
2021/12/01 00:23:23;;;;;;;6.25;4.25;;;10.00;94.10;;;;;;6212979;23;20005;-76
2021/12/01 00:25:49;;;;;;;7.03;5.18;;;10.00;94.10;;;;;;6212298;23;20013;-76
2021/12/01 00:28:16;;;;;;;7.10;4.35;;;10.00;94.10;;;;;;6213008;23;20091;-77
2021/12/01 00:30:42;;;;;;;5.20;3.40;;;10.10;94.10;;;;;;6206328;23;20021;-77
2021/12/01 00:33:11;;;;;;;5.38;3.80;;;10.10;94.10;;;;;;6211972;23;20072;-76
2021/12/01 00:35:37;;;;;;;5.10;3.42;;;10.10;94.10;;;;;;6212269;23;20000;-76
2021/12/01 00:38:03;;;;;;;4.97;3.28;;;10.10;94.00;;;;;;6213278;23;20008;-77
2021/12/01 00:40:29;;;;;;;3.92;2.72;;;10.10;94.00;;;;;;6162249;23;20016;-77
2021/12/01 00:42:55;;;;;;;3.65;2.30;;;10.10;94.10;;;;;;6212738;23;20024;-76
2021/12/01 00:45:22;;;;;;;3.80;2.50;;;10.10;94.10;;;;;;6206123;23;20021;-77
2021/12/01 00:47:51;;;;;;;3.85;2.60;;;10.20;94.10;;;;;;6212461;23;20000;-76
2021/12/01 00:50:29;;;;;;;3.30;2.10;;;10.10;94.10;;;;;;6188253;23;20059;-77
2021/12/01 00:52:57;;;;;;;3.53;2.33;;;10.20;94.10;;;;;;6214195;23;19997;-78
2021/12/01 00:55:23;;;;;;;3.13;2.10;;;10.20;94.10;;;;;;6214321;23;20023;-77
2021/12/01 00:57:51;;;;;;;3.03;2.10;;;10.20;94.10;;;;;;6212155;23;20000;-75
2021/12/01 01:00:17;;;;;;;3.25;2.00;;;10.20;94.10;;;;;;6187764;23;20004;-75
2021/12/01 01:02:43;;;;;;;3.33;2.15;;;10.10;94.10;;;;;;6214230;23;20083;-77
2021/12/01 01:05:11;;;;;;;2.25;1.60;;;10.10;94.10;;;;;;6212984;23;20432;-78
2021/12/01 01:07:37;;;;;;;2.80;1.77;;;10.20;94.10;;;;;;6212129;23;20004;-77
2021/12/01 01:10:17;;;;;;;3.50;2.15;;;10.20;94.10;;;;;;6212200;23;20016;-77
2021/12/01 01:18:05;;;;;;;3.20;2.13;;;10.30;94.10;;;;;;6213812;23;20017;-78
2021/12/01 01:20:33;;;;;;;4.88;2.33;;;10.20;94.10;;;;;;6212212;23;20032;-76
2021/12/01 01:22:59;;;;;;;3.20;2.20;;;10.20;94.10;;;;;;6193343;23;20021;-78
2021/12/01 01:25:25;;;;;;;3.03;2.00;;;10.20;94.10;;;;;;6182964;23;20424;-78
2021/12/01 01:27:50;;;;;;;3.53;2.28;;;10.30;94.10;;;;;;6182310;23;20001;-77
2021/12/01 01:30:16;;;;;;;3.47;2.30;;;10.30;94.10;;;;;;6182345;23;20010;-77
2021/12/01 01:32:42;;;;;;;4.70;2.53;;;10.30;94.10;;;;;;6157129;23;20028;-77
2021/12/01 01:35:08;;;;;;;3.10;2.05;;;10.30;94.10;;;;;;6157061;23;20071;-77
2021/12/01 01:37:33;;;;;;;3.60;2.50;;;10.40;94.10;;;;;;6182036;23;20338;-76
2021/12/01 01:39:59;;;;;;;2.80;2.00;;;10.40;94.10;;;;;;6183709;23;20084;-78
2021/12/01 01:42:25;;;;;;;3.08;2.10;;;10.40;94.10;;;;;;6157729;23;20005;-77
2021/12/01 01:44:51;;;;;;;3.17;1.95;;;10.40;94.40;;;;;;6156578;23;20010;-77
2021/12/01 01:47:17;;;;;;;3.35;1.90;;;10.30;94.10;;;;;;6176283;23;20088;-77
2021/12/01 01:49:56;;;;;;;3.75;2.00;;;10.40;94.10;;;;;;6181866;23;20016;-77
2021/12/01 01:52:22;;;;;;;3.08;2.05;;;10.30;94.10;;;;;;6182670;23;20302;-76
2021/12/01 01:54:48;;;;;;;2.88;1.92;;;10.30;94.10;;;;;;6176730;23;20052;-77
2021/12/01 01:57:13;;;;;;;2.55;1.90;;;10.40;94.10;;;;;;6183802;23;20005;-78
2021/12/01 01:59:39;;;;;;;2.28;1.52;;;10.30;94.10;;;;;;6156924;23;20005;-77
2021/12/01 02:02:05;;;;;;;2.78;1.70;;;10.30;94.10;;;;;;6181742;23;20298;-77
2021/12/01 02:04:33;;;;;;;2.30;1.58;;;10.30;94.10;;;;;;6183327;23;20005;-77
2021/12/01 02:07:01;;;;;;;2.22;1.40;;;10.30;94.10;;;;;;6181519;23;20031;-77
2021/12/01 02:09:27;;;;;;;2.20;1.40;;;10.30;94.10;;;;;;6181736;23;20084;-77
2021/12/01 02:11:56;;;;;;;2.50;1.55;;;10.30;94.10;;;;;;6183293;23;20083;-77
2021/12/01 02:14:23;;;;;;;3.42;1.75;;;10.30;94.20;;;;;;6181124;23;20055;-77
2021/12/01 02:16:50;;;;;;;2.72;1.70;;;10.30;94.10;;;;;;6183236;23;19997;-77
2021/12/01 02:19:16;;;;;;;2.65;1.60;;;10.30;94.10;;;;;;6157399;23;20009;-77
2021/12/01 02:21:42;;;;;;;2.25;1.55;;;10.20;94.10;;;;;;6156798;23;20132;-77
2021/12/01 02:24:12;;;;;;;2.85;1.75;;;10.20;94.10;;;;;;6183118;23;21178;-77
2021/12/01 02:26:41;;;;;;;3.88;1.83;;;10.20;94.10;;;;;;6176707;23;19997;-76
2021/12/01 02:29:10;;;;;;;2.90;1.83;;;10.10;94.10;;;;;;6156944;23;20425;-76
2021/12/01 02:31:37;;;;;;;3.08;1.80;;;10.10;94.20;;;;;;6180010;23;20001;-76
2021/12/01 02:34:08;;;;;;;3.42;1.80;;;10.10;94.20;;;;;;6207032;23;20001;-77
2021/12/01 02:36:34;;;;;;;2.78;1.70;;;10.20;94.20;;;;;;6157289;23;20455;-76
2021/12/01 02:39:03;;;;;;;2.70;1.70;;;10.10;94.20;;;;;;6181383;23;20355;-76
2021/12/01 02:41:30;;;;;;;2.67;1.83;;;10.10;94.20;;;;;;6181035;23;20006;-77
2021/12/01 02:43:59;;;;;;;2.45;1.52;;;10.10;94.20;;;;;;6183620;23;20001;-76
2021/12/01 02:46:26;;;;;;;2.63;1.80;;;10.10;94.20;;;;;;6176187;23;20520;-76
2021/12/01 02:48:52;;;;;;;2.50;1.80;;;10.00;94.20;;;;;;6182846;23;20072;-77
2021/12/01 02:51:19;;;;;;;2.30;1.63;;;9.90;94.20;;;;;;6181315;23;20848;-77
2021/12/01 02:53:45;;;;;;;2.45;1.70;;;10.00;94.20;;;;;;6156810;23;20440;-77
2021/12/01 02:56:11;;;;;;;2.45;1.77;;;9.90;94.20;;;;;;6182984;23;19998;-77
2021/12/01 02:58:42;;;;;;;2.17;1.67;;;9.90;94.20;;;;;;6183281;23;20084;-76
2021/12/01 03:01:13;;;;;;;2.50;1.80;;;9.80;94.20;;;;;;6182576;23;20005;-76
2021/12/01 03:03:40;;;;;;;3.95;1.95;;;9.80;94.20;;;;;;6184334;23;20388;-76
2021/12/01 03:06:07;;;;;;;2.17;1.65;;;9.80;94.20;;;;;;6182680;23;20001;-78
2021/12/01 03:08:34;;;;;;;1.73;1.42;;;9.80;94.20;;;;;;6182929;23;20333;-76
2021/12/01 03:11:00;;;;;;;2.05;1.70;;;9.80;94.20;;;;;;6182824;23;20009;-78
2021/12/01 03:13:26;;;;;;;1.90;1.30;;;9.80;94.50;;;;;;6184036;23;20468;-77
2021/12/01 03:15:53;;;;;;;2.25;1.65;;;9.80;94.20;;;;;;6184549;23;20005;-77
2021/12/01 03:18:19;;;;;;;2.38;1.70;;;9.80;94.20;;;;;;6182585;23;20054;-76
2021/12/01 03:20:46;;;;;;;1.88;1.40;;;9.70;94.20;;;;;;6182471;23;20020;-77
2021/12/01 03:23:13;;;;;;;1.70;1.33;;;9.70;94.20;;;;;;6182470;23;20040;-77
2021/12/01 03:25:39;;;;;;;1.83;1.40;;;9.70;94.20;;;;;;6184030;23;20063;-77
2021/12/01 03:28:07;;;;;;;1.98;1.45;;;9.70;94.20;;;;;;6184615;23;20092;-77
2021/12/01 03:30:36;;;;;;;2.05;1.35;;;9.60;94.20;;;;;;6181343;23;20012;-78
2021/12/01 03:33:04;;;;;;;1.88;1.25;;;9.60;94.20;;;;;;6184424;23;20001;-76
2021/12/01 03:35:31;;;;;;;1.85;1.30;;;9.60;94.50;;;;;;6182496;23;20039;-77
2021/12/01 03:37:57;;;;;;;2.50;1.65;;;9.60;94.30;;;;;;6183405;23;20021;-77
2021/12/01 03:40:23;;;;;;;2.58;1.52;;;9.60;94.30;;;;;;6182535;23;20008;-76
2021/12/01 03:42:49;;;;;;;2.45;1.60;;;9.60;94.30;;;;;;6183160;23;20475;-76
2021/12/01 03:45:15;;;;;;;2.28;1.55;;;9.50;94.20;;;;;;6183148;23;20005;-77
2021/12/01 03:47:42;;;;;;;1.73;1.42;;;9.60;94.30;;;;;;6183119;23;20001;-77
2021/12/01 03:50:09;;;;;;;2.03;1.40;;;9.50;94.20;;;;;;6182380;23;20526;-77
2021/12/01 03:52:35;;;;;;;2.38;1.48;;;9.50;94.20;;;;;;6183960;23;20461;-77
2021/12/01 03:55:01;;;;;;;2.17;1.45;;;9.50;94.20;;;;;;6183135;23;19997;-76
2021/12/01 03:57:27;;;;;;;1.50;1.30;;;9.40;94.40;;;;;;6184023;23;20051;-77
2021/12/01 03:59:53;;;;;;;2.17;1.52;;;9.50;94.20;;;;;;6183050;23;20072;-77
2021/12/01 04:02:19;;;;;;;1.58;1.25;;;9.40;94.20;;;;;;6181902;23;20017;-77
2021/12/01 04:04:45;;;;;;;2.00;1.60;;;9.40;94.20;;;;;;6182181;23;20353;-77
2021/12/01 04:07:11;;;;;;;2.08;1.67;;;9.40;94.20;;;;;;6182056;23;20005;-77
2021/12/01 04:09:43;;;;;;;2.22;1.70;;;9.40;94.20;;;;;;6182090;23;20008;-76
2021/12/01 04:12:09;;;;;;;3.55;1.90;;;9.40;94.10;;;;;;6183285;23;20441;-77
2021/12/01 04:14:35;;;;;;;2.50;1.80;;;9.40;94.10;;;;;;6157576;23;20008;-77
2021/12/01 04:17:01;;;;;;;2.63;1.90;;;9.40;94.10;;;;;;6183853;23;19997;-76
2021/12/01 04:19:26;;;;;;;3.00;2.00;;;9.40;94.10;;;;;;6184077;23;20092;-77
2021/12/01 04:21:52;;;;;;;3.13;1.70;;;9.40;94.10;;;;;;6184509;23;20078;-77
2021/12/01 04:24:19;;;;;;;2.42;1.80;;;9.40;94.10;;;;;;6157574;23;20008;-76
2021/12/01 04:26:44;;;;;;;3.85;1.65;;;9.40;94.00;;;;;;6183931;23;20080;-76
2021/12/01 04:29:10;;;;;;;3.75;2.40;;;9.40;94.00;;;;;;6182516;23;20032;-76
2021/12/01 04:31:38;;;;;;;2.85;1.90;;;9.40;94.00;;;;;;6184074;23;20005;-77
2021/12/01 04:34:05;;;;;;;2.55;1.88;;;9.40;93.90;;;;;;6182335;23;19997;-77
2021/12/01 04:36:34;;;;;;;2.67;1.85;;;9.40;93.90;;;;;;6184134;23;20076;-78
2021/12/01 04:39:01;;;;;;;2.80;1.85;;;9.40;93.90;;;;;;6182240;23;20004;-76
2021/12/01 04:41:29;;;;;;;3.05;1.90;;;9.40;93.90;;;;;;6184225;23;20321;-76
2021/12/01 04:43:57;;;;;;;2.80;1.95;;;9.40;93.90;;;;;;6158033;23;20011;-76
2021/12/01 04:46:22;;;;;;;2.88;1.90;;;9.40;93.90;;;;;;6182286;23;20075;-78
2021/12/01 04:48:48;;;;;;;2.20;1.65;;;9.40;94.10;;;;;;6182268;23;20001;-78
2021/12/01 04:51:17;;;;;;;3.65;2.33;;;9.40;93.80;;;;;;6184190;23;20009;-77
2021/12/01 04:53:43;;;;;;;3.22;2.20;;;9.40;93.80;;;;;;6157788;23;20016;-77
2021/12/01 04:56:09;;;;;;;2.97;1.88;;;9.40;93.80;;;;;;6157421;23;20062;-77
2021/12/01 04:58:35;;;;;;;3.78;2.13;;;9.40;93.80;;;;;;6157426;23;20455;-77
2021/12/01 05:01:01;;;;;;;3.08;2.15;;;9.40;93.70;;;;;;6182022;23;20341;-76
2021/12/01 05:03:29;;;;;;;3.88;2.28;;;9.40;93.70;;;;;;6157520;23;20001;-77
2021/12/01 05:05:56;;;;;;;3.88;2.33;;;9.40;93.90;;;;;;6183808;23;20012;-78
2021/12/01 05:08:22;;;;;;;4.22;2.28;;;9.30;93.60;;;;;;6157385;23;20009;-77
2021/12/01 05:10:49;;;;;;;4.20;2.70;;;9.40;93.50;;;;;;6181960;23;20067;-76
2021/12/01 05:13:14;;;;;;;3.90;2.55;;;9.30;93.50;;;;;;6182577;23;20004;-77
2021/12/01 05:15:40;;;;;;;4.05;2.20;;;9.20;93.60;;;;;;6182903;23;20001;-78
2021/12/01 05:18:08;;;;;;;3.58;2.33;;;9.10;93.60;;;;;;6182859;23;20008;-77
2021/12/01 05:20:34;;;;;;;3.33;2.30;;;9.10;93.70;;;;;;6182408;23;20005;-78
2021/12/01 05:22:59;;;;;;;3.70;2.30;;;9.10;93.70;;;;;;6184292;23;20439;-78
2021/12/01 05:25:25;;;;;;;3.83;1.98;;;9.10;93.70;;;;;;6157490;23;20337;-76
2021/12/01 05:27:51;;;;;;;4.90;2.47;;;9.00;93.70;;;;;;6182217;23;20005;-77
2021/12/01 05:30:18;;;;;;;3.97;2.42;;;9.00;93.70;;;;;;6183024;23;20098;-77
2021/12/01 05:32:44;;;;;;;3.83;2.40;;;9.00;93.80;;;;;;6183780;23;20421;-76
2021/12/01 05:35:10;;;;;;;2.88;1.90;;;9.00;93.80;;;;;;6157350;23;20354;-76
2021/12/01 05:37:36;;;;;;;2.80;1.80;;;9.00;93.80;;;;;;6183617;23;20040;-77
2021/12/01 05:40:02;;;;;;;3.42;1.90;;;9.00;93.80;;;;;;6182067;23;20002;-77
2021/12/01 05:42:28;;;;;;;2.47;1.70;;;9.00;93.80;;;;;;6182123;23;20005;-78
2021/12/01 05:44:55;;;;;;;2.60;1.77;;;8.90;93.80;;;;;;6184178;23;20039;-78
2021/12/01 05:47:21;;;;;;;3.38;1.88;;;8.90;93.80;;;;;;6182105;23;20005;-77
2021/12/01 05:49:47;;;;;;;2.85;1.80;;;8.90;93.80;;;;;;6182534;23;20330;-78
2021/12/01 05:52:14;;;;;;;2.97;1.95;;;8.90;93.80;;;;;;6182024;23;20019;-77
2021/12/01 05:54:41;;;;;;;2.90;1.75;;;8.90;93.70;;;;;;6181864;23;20369;-76
2021/12/01 05:57:07;;;;;;;1.75;1.30;;;8.90;93.80;;;;;;6182724;23;20001;-78
2021/12/01 05:59:32;;;;;;;2.28;1.58;;;8.90;93.70;;;;;;6157366;23;20005;-78
2021/12/01 06:01:58;;;;;;;2.38;1.60;;;8.90;93.70;;;;;;6182232;23;20001;-77
2021/12/01 06:04:24;;;;;;;1.90;1.40;;;8.90;93.70;;;;;;6183735;23;20008;-78
2021/12/01 06:06:51;;;;;;;2.33;1.60;;;8.90;93.70;;;;;;6181917;23;20036;-76
2021/12/01 06:09:16;;;;;;;2.58;1.50;;;8.90;93.70;;;;;;6157977;23;20009;-78
2021/12/01 06:11:42;;;;;;;1.92;1.40;;;8.90;93.80;;;;;;6156784;23;20445;-78
2021/12/01 06:14:09;;;;;;;1.95;1.33;;;8.90;93.80;;;;;;6181911;23;20009;-78
2021/12/01 06:16:34;;;;;;;2.53;1.20;;;8.80;93.80;;;;;;6156804;23;20451;-79
2021/12/01 06:19:00;;;;;;;2.40;1.40;;;8.80;93.80;;;;;;6181754;23;20088;-78
2021/12/01 06:21:26;;;;;;;2.00;1.35;;;8.70;93.80;;;;;;6181856;23;20028;-78
2021/12/01 06:23:51;;;;;;;2.05;1.42;;;8.70;93.80;;;;;;6181612;23;20437;-79
2021/12/01 06:26:17;;;;;;;2.28;1.23;;;8.80;93.80;;;;;;6181765;23;20037;-75
2021/12/01 06:28:43;;;;;;;1.25;1.08;;;8.70;93.80;;;;;;6181584;23;20088;-77
2021/12/01 06:31:10;;;;;;;1.55;0.95;;;8.70;94.00;;;;;;6183674;23;20013;-79
2021/12/01 06:33:36;;;;;;;1.05;0.90;;;8.80;93.80;;;;;;6158030;23;20514;-76
2021/12/01 06:36:02;;;;;;;2.47;1.10;;;8.80;93.80;;;;;;6158206;23;20008;-79
2021/12/01 06:38:28;;;;;;;1.23;0.90;;;8.70;93.80;;;;;;6184879;23;20008;-78
2021/12/01 06:40:54;;;;;;;1.70;1.10;;;8.70;93.80;;;;;;6183009;23;20083;-76
2021/12/01 06:43:19;;;;;;;0.93;0.88;;;8.70;93.80;;;;;;6184400;23;20008;-77
2021/12/01 06:45:46;;;;;;;1.17;0.93;;;8.70;93.80;;;;;;6184191;23;20013;-75
2021/12/01 06:48:12;;;;;;;1.98;0.93;;;8.70;93.80;;;;;;6183113;23;20017;-80
2021/12/01 06:50:37;;;;;;;1.00;0.70;;;8.70;93.80;;;;;;6184707;23;20033;-76
2021/12/01 06:53:04;;;;;;;1.50;0.82;;;8.70;93.80;;;;;;6185091;23;20001;-75
2021/12/01 06:55:30;;;;;;;0.98;0.85;;;8.70;93.80;;;;;;6183064;23;20028;-75
2021/12/01 06:57:56;;;;;;;1.05;0.90;;;8.70;93.80;;;;;;6184451;23;19997;-76
2021/12/01 07:00:21;;;;;;;0.90;0.82;;;8.70;93.80;;;;;;6182981;23;20012;-77
2021/12/01 07:02:47;;;;;;;1.05;0.80;;;8.70;93.90;;;;;;6158310;23;20087;-76
2021/12/01 07:05:13;;;;;;;1.17;0.80;;;8.70;93.90;;;;;;6185127;23;20013;-75
2021/12/01 07:07:39;;;;;;;1.70;0.90;;;8.70;93.90;;;;;;6158171;23;20005;-76
2021/12/01 07:10:07;;;;;;;0.68;0.68;;;8.60;93.90;;;;;;6182843;23;20456;-76
2021/12/01 07:12:33;;;;;;;1.10;0.80;;;8.70;93.90;;;;;;6185104;23;20429;-76
2021/12/01 07:14:59;;;;;;;1.67;0.90;;;8.70;93.90;;;;;;6182812;23;20005;-76
2021/12/01 07:17:25;;;;;;;2.13;0.90;;;8.70;93.90;;;;;;6157926;23;20016;-76
2021/12/01 07:19:50;;;;;;;0.82;0.70;;;8.70;93.90;;;;;;6182826;23;20005;-77
2021/12/01 07:22:17;;;;;;;0.95;0.80;;;8.70;93.90;;;;;;6182685;23;20001;-77
2021/12/01 07:24:43;;;;;;;1.00;0.90;;;8.70;93.90;;;;;;6182754;23;20009;-77
2021/12/01 07:27:09;;;;;;;0.90;0.82;;;8.60;93.90;;;;;;6157813;23;20020;-78
2021/12/01 07:29:35;;;;;;;1.80;0.85;;;8.70;93.90;;;;;;6182570;23;20047;-77
2021/12/01 07:32:02;;;;;;;1.30;0.80;;;8.70;93.90;;;;;;6184884;23;20044;-78
2021/12/01 07:34:27;;;;;;;1.08;0.90;;;8.70;93.90;;;;;;6184479;23;20007;-78
2021/12/01 07:36:53;;;;;;;1.00;0.90;;;8.80;93.90;;;;;;6182997;23;20072;-78
2021/12/01 07:39:20;;;;;;;0.80;0.80;;;8.80;93.90;;;;;;6158569;23;20005;-77
2021/12/01 07:41:47;;;;;;;0.77;0.77;;;8.70;93.90;;;;;;6183070;23;20008;-76
2021/12/01 07:44:13;;;;;;;0.60;0.60;;;8.80;94.00;;;;;;6184770;23;20076;-77
2021/12/01 07:46:39;;;;;;;0.82;0.80;;;8.80;93.90;;;;;;6184280;23;20074;-76
2021/12/01 07:49:05;;;;;;;0.95;0.80;;;8.80;93.90;;;;;;6158124;23;20012;-78
2021/12/01 07:51:32;;;;;;;2.03;1.00;;;8.70;93.90;;;;;;6182711;23;20064;-76
2021/12/01 07:53:57;;;;;;;1.08;0.98;;;8.80;94.00;;;;;;6159303;23;20005;-78
2021/12/01 07:56:23;;;;;;;1.13;0.90;;;8.80;94.00;;;;;;6184860;23;19997;-78
2021/12/01 07:58:49;;;;;;;1.73;1.20;;;8.80;94.00;;;;;;6183304;23;20012;-78
2021/12/01 08:01:24;;;;;;;1.73;1.20;;;8.80;93.90;;;;;;6159657;23;20306;-81
2021/12/01 08:03:50;;;;;;;1.48;1.20;;;8.90;94.00;;;;;;6161135;23;20013;-76
2021/12/01 08:06:15;;;;;;;1.63;1.20;;;8.90;94.00;;;;;;6162177;23;20001;-80
2021/12/01 08:08:41;;;;;;;1.85;1.30;;;8.90;94.00;;;;;;6158203;23;20028;-78
2021/12/01 08:11:07;;;;;;;1.95;1.40;;;9.00;94.00;;;;;;6182647;23;20017;-81
2021/12/01 08:13:32;;;;;;;2.60;1.70;;;9.10;93.90;;;;;;6183258;23;20390;-78
2021/12/01 08:16:00;;;;;;;2.78;1.90;;;9.00;93.90;;;;;;6184297;23;20001;-77
2021/12/01 08:18:26;;;;;;;2.78;2.00;;;9.10;93.90;;;;;;6182746;23;20020;-78
2021/12/01 08:20:51;;;;;;;3.50;2.00;;;9.10;93.90;;;;;;6159309;23;20013;-78
2021/12/01 08:23:17;;;;;;;3.25;2.17;;;9.00;93.90;;;;;;6158632;23;20088;-77
2021/12/01 08:25:43;;;;;;;3.72;2.33;;;9.20;93.90;;;;;;6158292;23;20023;-78
2021/12/01 08:28:09;;;;;;;3.03;2.20;;;9.20;93.90;;;;;;6182775;23;20009;-79
2021/12/01 08:30:34;;;;;;;3.08;2.20;;;9.20;93.80;;;;;;6185819;23;20056;-78
2021/12/01 08:33:00;;;;;;;3.80;2.55;;;9.20;93.80;;;;;;6184713;23;20031;-76
2021/12/01 08:35:26;;;;;;;3.42;2.40;;;9.20;93.80;;;;;;6167144;23;20436;-77
2021/12/01 08:37:52;;;;;;;3.97;2.53;;;9.30;93.80;;;;;;6190377;23;20005;-77
2021/12/01 08:40:18;;;;;;;4.32;2.63;;;9.30;93.80;;;;;;6163361;23;20076;-77
2021/12/01 08:42:45;;;;;;;5.30;3.20;;;9.30;93.80;;;;;;6159390;23;20059;-77
2021/12/01 08:45:11;;;;;;;3.92;2.70;;;9.40;93.80;;;;;;6182768;23;20028;-77
2021/12/01 08:47:36;;;;;;;4.50;2.33;;;9.40;93.80;;;;;;6182746;23;20448;-79
2021/12/01 08:50:10;;;;;;;4.15;2.88;;;9.40;93.80;;;;;;6157520;23;20067;-81
2021/12/01 08:52:38;;;;;;;4.53;2.90;;;9.40;93.70;;;;;;6185016;23;20019;-80
2021/12/01 08:55:08;;;;;;;4.32;2.90;;;9.50;93.80;;;;;;6183405;23;20084;-77
2021/12/01 08:57:34;;;;;;;3.97;2.70;;;9.50;93.70;;;;;;6170557;23;20322;-79
2021/12/01 09:00:07;;;;;;;4.65;2.90;;;9.50;93.70;;;;;;6165696;23;20027;-80
2021/12/01 09:02:33;;;;;;;3.63;2.35;;;9.50;93.70;;;;;;6188874;23;20029;-78
2021/12/01 09:04:59;;;;;;;4.20;2.60;;;9.60;93.60;;;;;;6188746;23;20009;-76
2021/12/01 09:07:25;;;;;;;4.03;2.75;;;9.60;93.60;;;;;;6161295;23;20020;-77
2021/12/01 09:09:51;;;;;;;3.78;2.72;;;9.60;93.60;;;;;;6184504;23;20421;-77
2021/12/01 09:12:18;;;;;;;3.65;2.60;;;9.60;93.70;;;;;;6184612;23;20023;-78
2021/12/01 09:14:44;;;;;;;5.00;3.20;;;9.50;93.70;;;;;;6189139;23;20009;-75
2021/12/01 09:17:12;;;;;;;4.95;2.88;;;9.50;93.70;;;;;;6188185;23;20011;-76
2021/12/01 09:19:39;;;;;;;3.85;2.50;;;9.50;93.70;;;;;;6187022;23;20009;-76
2021/12/01 09:22:06;;;;;;;3.88;2.70;;;9.50;93.70;;;;;;6185744;23;20021;-77
2021/12/01 09:24:32;;;;;;;7.60;2.85;;;9.50;93.80;;;;;;6185646;23;20016;-76
2021/12/01 09:26:57;;;;;;;8.45;2.65;;;9.50;93.80;;;;;;6160715;23;20013;-76
2021/12/01 09:29:27;;;;;;;5.45;2.40;;;9.40;93.70;;;;;;6200343;23;20001;-78
2021/12/01 09:31:54;;;;;;;3.90;2.05;;;9.40;93.70;;;;;;6173834;23;20076;-77
2021/12/01 09:34:20;;;;;;;3.60;1.88;;;9.30;93.80;;;;;;6196221;23;20819;-77
2021/12/01 09:36:46;;;;;;;3.60;1.70;;;9.30;93.90;;;;;;6196801;23;19997;-77
2021/12/01 09:39:12;;;;;;;4.75;1.52;;;9.20;93.90;;;;;;6187646;23;20428;-77
2021/12/01 09:41:38;;;;;;;5.82;1.80;;;9.20;93.90;;;;;;6188234;23;20035;-76
2021/12/01 09:44:04;;;;;;;3.00;1.42;;;9.20;93.90;;;;;;6189513;23;20009;-77
2021/12/01 09:46:31;;;;;;;2.83;1.27;;;9.10;93.90;;;;;;6184868;23;20005;-77
2021/12/01 09:48:57;;;;;;;3.28;1.40;;;9.10;93.90;;;;;;6182249;23;20496;-81
2021/12/01 09:51:23;;;;;;;1.92;1.10;;;9.10;93.90;;;;;;6182673;23;20012;-79
2021/12/01 09:53:49;;;;;;;2.95;1.20;;;9.20;94.00;;;;;;6182624;23;20502;-79
2021/12/01 09:56:19;;;;;;;3.58;1.25;;;9.10;93.90;;;;;;6126481;23;20041;-79
2021/12/01 09:58:44;;;;;;;3.08;1.20;;;9.20;93.90;;;;;;6128233;23;20006;-77
2021/12/01 10:01:16;;;;;;;4.65;1.15;;;9.20;93.90;;;;;;6129048;23;20378;-78
2021/12/01 10:03:43;;;;;;;3.50;1.30;;;9.20;93.90;;;;;;6134181;23;20822;-79
2021/12/01 10:06:13;;;;;;;4.80;1.30;;;9.20;93.80;;;;;;6157347;23;20041;-77
2021/12/01 10:08:44;;;;;;;2.25;0.80;;;9.30;93.80;;;;;;6152420;23;20342;-79
2021/12/01 10:11:15;;;;;;;2.65;1.02;;;9.40;93.80;;;;;;6128673;23;20069;-77
2021/12/01 10:13:45;;;;;;;5.78;1.25;;;9.30;93.80;;;;;;6135364;23;20006;-78
2021/12/01 10:16:14;;;;;;;3.38;0.90;;;9.40;93.80;;;;;;6143171;23;20037;-78
2021/12/01 10:18:43;;;;;;;1.58;0.85;;;9.40;93.70;;;;;;6144659;23;20358;-79
2021/12/01 10:21:20;;;;;;;2.00;1.00;;;9.50;93.90;;;;;;6130878;23;20018;-76
2021/12/01 10:23:52;;;;;;;1.23;0.70;;;9.40;93.50;;;;;;6155204;23;20014;-76
2021/12/01 10:26:22;;;;;;;;;;;9.60;93.50;;;;;;6137227;23;20005;-76
2021/12/01 10:28:54;;;;;;;0.87;0.57;;;9.50;93.40;;;;;;6208318;23;19900;-75
2021/12/01 10:31:33;;;;;;;2.20;0.70;;;9.50;93.40;;;;;;6158210;23;20291;-78
2021/12/01 10:34:35;;;;;;;1.42;0.65;;;9.50;93.40;;;;;;6186100;23;20064;-77
2021/12/01 10:37:25;;;;;;;2.47;0.90;;;9.40;93.40;;;;;;6195045;23;20101;-75
2021/12/01 10:40:10;;;;;;;1.88;0.80;;;9.40;93.40;;;;;;6188056;23;20064;-77
2021/12/01 10:43:04;;;;;;;2.60;0.80;;;9.30;93.40;;;;;;6182234;23;20009;-78
2021/12/01 10:45:40;;;;;;;4.72;0.80;;;9.20;93.40;;;;;;6141209;23;20319;-77
2021/12/01 10:48:08;;;;;;;1.42;0.68;;;9.20;93.40;;;;;;6167933;23;20069;-76
2021/12/01 10:50:37;;;;;;;1.52;0.40;;;9.20;93.40;;;;;;6133627;23;20009;-77
2021/12/01 10:53:06;;;;;;;4.82;0.75;;;9.10;93.40;;;;;;6155132;23;20012;-79
2021/12/01 10:55:34;;;;;;;2.50;0.63;;;9.10;93.40;;;;;;6148605;23;20135;-78
2021/12/01 10:58:05;;;;;;;0.68;0.28;;;9.00;93.40;;;;;;6158095;23;21314;-76
2021/12/01 11:00:38;;;;;;;2.22;0.80;;;9.00;93.50;;;;;;6183915;23;20009;-77
2021/12/01 11:03:08;;;;;;;1.08;0.52;;;9.00;93.50;;;;;;6183241;23;20005;-76
2021/12/01 11:05:37;;;;;;;1.60;0.70;;;9.00;93.60;;;;;;6183888;23;20105;-78
2021/12/01 11:08:17;;;;;;;1.23;0.60;;;9.00;93.50;;;;;;6159585;23;20005;-78
2021/12/01 11:10:46;;;;;;;1.47;0.60;;;8.90;93.40;;;;;;6183534;23;20016;-78
2021/12/01 11:13:13;;;;;;;1.25;0.50;;;9.00;93.40;;;;;;6158053;23;20229;-78
2021/12/01 11:15:42;;;;;;;2.40;0.95;;;9.00;93.70;;;;;;6182957;23;20001;-77
2021/12/01 11:18:09;;;;;;;3.97;0.80;;;9.10;93.30;;;;;;6183033;23;20001;-77
2021/12/01 11:20:40;;;;;;;1.65;0.75;;;9.10;93.30;;;;;;6140316;23;20044;-79
2021/12/01 11:23:27;;;;;;;2.35;0.80;;;9.20;93.20;;;;;;6179071;23;20005;-78
2021/12/01 11:25:56;;;;;;;4.90;1.00;;;9.10;93.20;;;;;;6133487;23;20013;-78
2021/12/01 11:28:25;;;;;;;3.50;0.80;;;9.20;93.10;;;;;;6159184;23;20337;-78
2021/12/01 11:30:55;;;;;;;1.58;0.70;;;9.20;93.10;;;;;;6157302;23;20010;-78
2021/12/01 11:33:22;;;;;;;1.42;0.85;;;9.20;93.10;;;;;;6147115;23;20005;-78
2021/12/01 11:35:53;;;;;;;1.90;0.70;;;9.20;93.10;;;;;;6162150;23;20028;-79
2021/12/01 11:38:19;;;;;;;2.77;0.70;;;9.20;93.10;;;;;;6149345;23;20795;-79
2021/12/01 11:40:47;;;;;;;2.97;0.70;;;9.20;93.10;;;;;;6164343;23;20253;-79
2021/12/01 11:43:14;;;;;;;3.38;0.82;;;9.20;93.00;;;;;;6142415;23;20019;-79
2021/12/01 11:45:43;;;;;;;3.00;0.80;;;9.20;93.00;;;;;;6189409;23;20005;-78
2021/12/01 11:48:13;;;;;;;1.15;0.47;;;9.20;93.00;;;;;;6168638;23;20039;-80
2021/12/01 11:50:47;;;;;;;1.50;0.88;;;9.20;93.00;;;;;;6141368;23;20031;-78
2021/12/01 11:53:25;;;;;;;1.08;0.70;;;9.20;92.90;;;;;;6191187;23;20001;-79
2021/12/01 11:55:57;;;;;;;3.47;0.77;;;9.20;92.90;;;;;;6156373;23;20015;-79
2021/12/01 11:58:43;;;;;;;2.35;0.73;;;9.20;92.90;;;;;;6158512;23;19998;-78
2021/12/01 12:01:32;;;;;;;1.90;0.60;;;9.10;92.80;;;;;;6148926;23;20005;-80
2021/12/01 12:04:19;;;;;;;2.70;0.73;;;9.10;92.80;;;;;;6148284;23;20005;-77
2021/12/01 12:06:49;;;;;;;3.53;0.82;;;9.00;92.80;;;;;;6120261;23;20025;-77
2021/12/01 12:09:18;;;;;;;2.17;0.82;;;9.00;93.10;;;;;;6143290;23;20028;-79
2021/12/01 12:11:49;;;;;;;2.67;0.82;;;9.00;92.90;;;;;;6169323;23;20053;-78
2021/12/01 12:14:26;;;;;;;2.30;0.60;;;9.00;92.90;;;;;;6139450;23;20001;-80
2021/12/01 12:17:13;;;;;;;1.75;0.73;;;9.00;92.90;;;;;;6146634;23;20013;-80
2021/12/01 12:19:56;;;;;;;3.03;0.70;;;9.20;93.00;;;;;;6140310;23;20381;-80
2021/12/01 12:22:50;;;;;;;2.85;1.20;;;9.10;92.90;;;;;;6173460;23;20010;-80
2021/12/01 12:25:35;;;;;;;2.72;0.75;;;9.10;92.80;;;;;;6145236;23;20021;-78
2021/12/01 12:28:23;;;;;;;2.75;0.80;;;9.20;92.70;;;;;;6164919;23;20068;-80
2021/12/01 12:30:50;;;;;;;4.30;1.17;;;9.20;93.00;;;;;;6117589;23;20036;-80
2021/12/01 12:33:22;;;;;;;4.97;0.88;;;9.10;92.70;;;;;;6170677;23;20065;-77
2021/12/01 12:35:52;;;;;;;3.75;0.95;;;9.10;92.60;;;;;;6198863;23;19996;-77
2021/12/01 12:38:18;;;;;;;2.38;0.70;;;9.20;92.70;;;;;;6153705;23;20425;-78
2021/12/01 12:40:46;;;;;;;3.33;0.70;;;9.30;92.70;;;;;;6148494;23;20072;-75
2021/12/01 12:43:20;;;;;;;2.65;0.77;;;9.30;92.60;;;;;;6162932;23;20008;-75
2021/12/01 12:46:09;;;;;;;3.53;0.80;;;9.20;92.50;;;;;;6195050;23;20278;-80
2021/12/01 12:48:38;;;;;;;5.50;1.10;;;9.40;92.50;;;;;;6164087;23;20060;-79
2021/12/01 12:51:17;;;;;;;2.20;0.80;;;9.30;92.40;;;;;;6136107;23;20034;-81
2021/12/01 12:54:11;;;;;;;1.65;0.70;;;9.40;92.30;;;;;;6168901;23;20441;-79
2021/12/01 12:56:40;;;;;;;3.83;0.90;;;9.40;92.30;;;;;;6156147;23;20005;-80
2021/12/01 12:59:27;;;;;;;4.93;1.10;;;9.40;92.50;;;;;;6146078;23;20001;-79
2021/12/01 13:02:15;;;;;;;3.33;0.90;;;9.40;92.20;;;;;;6130831;23;20021;-81
2021/12/01 13:05:01;;;;;;;1.50;0.75;;;9.40;92.20;;;;;;6127226;23;20022;-79
2021/12/01 13:07:43;;;;;;;2.63;0.70;;;9.40;92.10;;;;;;6155885;23;20000;-81